Time;durP1;ratioP1;P1;durP2;ratioP2;P2;SDS_P1;SDS_P2;PMS_P1;PMS_P2;Temp;Humidity;BMP_temperature;BMP_pressure;BME280_temperature;BME280_humidity;BME280_pressure;Samples;Min_cycle;Max_cycle;Signal;HPM_P1;HPM_P2
2022/04/06 00:08:51;;;;;;;;;2.00;2.00;;;;;;;;2;279081859;279081859;-84
2022/04/06 00:17:07;;;;;;;;;0.50;0.50;;;;;;;;2;234066358;234066358;-83
2022/04/06 00:26:08;;;;;;;;;0.00;0.00;;;;;;;;2;279078149;279078149;-81
2022/04/06 00:35:28;;;;;;;;;1.50;1.50;;;;;;;;2;234063515;234063515;-81
2022/04/06 00:43:43;;;;;;;;;1.00;1.00;;;;;;;;2;279078900;279078900;-82
2022/04/06 00:52:01;;;;;;;;;0.50;0.50;;;;;;;;2;234067097;234067097;-81
2022/04/06 01:01:01;;;;;;;;;0.00;0.00;;;;;;;;2;279081248;279081248;-81
2022/04/06 01:09:18;;;;;;;;;0.00;0.00;;;;;;;;2;234070313;234070313;-82
2022/04/06 01:18:18;;;;;;;;;0.50;0.50;;;;;;;;2;279078885;279078885;-81
2022/04/06 01:26:34;;;;;;;;;1.50;1.50;;;;;;;;2;234067103;234067103;-81
2022/04/06 01:35:38;;;;;;;;;4.50;4.50;;;;;;;;2;279080269;279080269;-81
2022/04/06 01:43:53;;;;;;;;;0.50;0.50;;;;;;;;2;234069254;234069254;-81
2022/04/06 01:52:54;;;;;;;;;0.50;0.50;;;;;;;;2;279083000;279083000;-82
2022/04/06 02:01:09;;;;;;;;;2.00;2.00;;;;;;;;2;234068402;234068402;-82
2022/04/06 02:10:10;;;;;;;;;2.00;2.00;;;;;;;;2;279075767;279075767;-81
2022/04/06 02:18:25;;;;;;;;;0.50;0.50;;;;;;;;2;234063352;234063352;-82
2022/04/06 02:27:26;;;;;;;;;12.00;0.00;;;;;;;;2;279076143;279076143;-81
2022/04/06 02:35:41;;;;;;;;;0.50;0.50;;;;;;;;2;234067134;234067134;-82
2022/04/06 02:44:41;;;;;;;;;0.50;0.50;;;;;;;;2;279079212;279079212;-81
2022/04/06 02:52:57;;;;;;;;;0.00;0.00;;;;;;;;2;234067853;234067853;-81
2022/04/06 03:01:57;;;;;;;;;0.00;0.00;;;;;;;;2;279077754;279077754;-81
2022/04/06 03:10:13;;;;;;;;;0.00;0.00;;;;;;;;2;234065480;234065480;-81
2022/04/06 03:19:13;;;;;;;;;1.00;1.00;;;;;;;;2;279080256;279080256;-81
2022/04/06 03:27:28;;;;;;;;;0.50;0.50;;;;;;;;2;234069969;234069969;-81
2022/04/06 03:36:29;;;;;;;;;0.50;0.50;;;;;;;;2;279081368;279081368;-81
2022/04/06 03:44:44;;;;;;;;;0.00;0.00;;;;;;;;2;234067235;234067235;-81
2022/04/06 03:53:45;;;;;;;;;0.00;0.00;;;;;;;;2;279076800;279076800;-82
2022/04/06 04:02:00;;;;;;;;;0.00;0.00;;;;;;;;2;234065796;234065796;-83
2022/04/06 04:11:00;;;;;;;;;0.00;0.00;;;;;;;;2;279081207;279081207;-82
2022/04/06 04:19:16;;;;;;;;;0.00;0.00;;;;;;;;2;234067240;234067240;-82
2022/04/06 04:28:16;;;;;;;;;16.50;0.00;;;;;;;;2;279082380;279082380;-82
2022/04/06 04:36:32;;;;;;;;;11.00;0.00;;;;;;;;2;234068846;234068846;-82
2022/04/06 04:45:32;;;;;;;;;0.00;0.00;;;;;;;;2;279077551;279077551;-82
2022/04/06 04:53:47;;;;;;;;;1.00;1.00;;;;;;;;2;234065143;234065143;-81
2022/04/06 05:02:48;;;;;;;;;11.00;0.00;;;;;;;;2;279081076;279081076;-82
2022/04/06 05:11:03;;;;;;;;;0.50;0.50;;;;;;;;2;234067981;234067981;-82
2022/04/06 05:20:05;;;;;;;;;0.50;0.50;;;;;;;;2;279081881;279081881;-82
2022/04/06 05:28:21;;;;;;;;;0.50;0.50;;;;;;;;2;234067872;234067872;-81
2022/04/06 05:37:21;;;;;;;;;0.00;0.00;;;;;;;;2;279077444;279077444;-81
2022/04/06 05:45:36;;;;;;;;;1.00;1.00;;;;;;;;2;234067015;234067015;-83
2022/04/06 05:54:37;;;;;;;;;0.50;0.50;;;;;;;;2;279080633;279080633;-82
2022/04/06 06:02:53;;;;;;;;;1.00;1.00;;;;;;;;2;234070079;234070079;-83
2022/04/06 06:11:54;;;;;;;;;0.50;0.50;;;;;;;;2;279088574;279088574;-83
2022/04/06 06:20:10;;;;;;;;;2.50;2.50;;;;;;;;2;234066303;234066303;-83
2022/04/06 06:29:11;;;;;;;;;1.50;1.50;;;;;;;;2;279076606;279076606;-83
2022/04/06 06:37:27;;;;;;;;;2.00;2.00;;;;;;;;2;234072501;234072501;-82
2022/04/06 06:46:29;;;;;;;;;15.00;3.00;;;;;;;;2;279078462;279078462;-84
2022/04/06 06:54:45;;;;;;;;;1.00;1.00;;;;;;;;2;234070777;234070777;-81
2022/04/06 07:03:45;;;;;;;;;3.00;3.00;;;;;;;;2;279083843;279083843;-84
2022/04/06 07:12:01;;;;;;;;;5.00;1.50;;;;;;;;2;234066277;234066277;-85
2022/04/06 07:21:01;;;;;;;;;2.00;2.00;;;;;;;;2;279077588;279077588;-83
2022/04/06 07:29:16;;;;;;;;;5.50;5.50;;;;;;;;2;234067347;234067347;-82
2022/04/06 07:38:18;;;;;;;;;7.50;7.50;;;;;;;;2;279080998;279080998;-85
2022/04/06 07:46:35;;;;;;;;;3.50;3.50;;;;;;;;2;234069857;234069857;-85
2022/04/06 07:55:35;;;;;;;;;1.00;1.00;;;;;;;;2;279079508;279079508;-85
2022/04/06 08:03:51;;;;;;;;;6.00;6.00;;;;;;;;2;234067620;234067620;-83
2022/04/06 08:12:52;;;;;;;;;0.50;0.50;;;;;;;;2;279077061;279077061;-85
2022/04/06 08:21:08;;;;;;;;;1.00;1.00;;;;;;;;2;234069848;234069848;-84
2022/04/06 08:30:09;;;;;;;;;1.00;1.00;;;;;;;;2;279081769;279081769;-84
2022/04/06 08:38:25;;;;;;;;;2.00;2.00;;;;;;;;2;234069408;234069408;-84
2022/04/06 08:47:25;;;;;;;;;3.00;3.00;;;;;;;;2;279078536;279078536;-84
2022/04/06 08:55:41;;;;;;;;;0.50;0.50;;;;;;;;2;234071418;234071418;-84
2022/04/06 09:04:41;;;;;;;;;4.00;0.00;;;;;;;;2;279078025;279078025;-84
2022/04/06 09:13:13;;;;;;;;;1.50;1.50;;;;;;;;2;234068209;234068209;-83
2022/04/06 09:22:14;;;;;;;;;4.00;4.00;;;;;;;;2;279078866;279078866;-83
2022/04/06 09:30:32;;;;;;;;;3.00;1.00;;;;;;;;2;234067128;234067128;-84
2022/04/06 09:39:42;;;;;;;;;18.00;4.00;;;;;;;;2;279080169;279080169;-84
2022/04/06 09:51:17;;;;;;;;;3.50;3.50;;;;;;;;2;234068876;234068876;-83
2022/04/06 10:00:21;;;;;;;;;1.00;1.00;;;;;;;;2;279088868;279088868;-83
2022/04/06 10:08:38;;;;;;;;;13.50;1.50;;;;;;;;2;234071266;234071266;-82
2022/04/06 10:17:38;;;;;;;;;3.00;3.00;;;;;;;;2;279083467;279083467;-83
2022/04/06 10:26:12;;;;;;;;;3.00;3.00;;;;;;;;2;234071565;234071565;-82
2022/04/06 10:35:19;;;;;;;;;3.50;3.50;;;;;;;;2;279085532;279085532;-83
2022/04/06 10:43:35;;;;;;;;;3.00;3.00;;;;;;;;2;234069834;234069834;-85
2022/04/06 10:52:36;;;;;;;;;13.00;1.50;;;;;;;;2;279084098;279084098;-84
2022/04/06 11:01:10;;;;;;;;;13.00;1.00;;;;;;;;2;234070006;234070006;-85
2022/04/06 11:10:11;;;;;;;;;3.00;3.00;;;;;;;;2;279085409;279085409;-84
2022/04/06 11:18:48;;;;;;;;;4.00;4.00;;;;;;;;2;234072421;234072421;-87
2022/04/06 11:27:49;;;;;;;;;8.00;8.00;;;;;;;;2;279081913;279081913;-85
2022/04/06 11:36:12;;;;;;;;;12.50;4.50;;;;;;;;2;234064590;234064590;-87
2022/04/06 11:45:17;;;;;;;;;3.50;3.50;;;;;;;;2;279078022;279078022;-88
2022/04/06 11:53:34;;;;;;;;;2.50;2.50;;;;;;;;2;234064029;234064029;-88
2022/04/06 12:02:48;;;;;;;;;3.50;3.50;;;;;;;;2;279080903;279080903;-90
2022/04/06 12:11:03;;;;;;;;;2.50;2.50;;;;;;;;2;234065324;234065324;-88
2022/04/06 12:20:23;;;;;;;;;2.50;2.50;;;;;;;;2;279076432;279076432;-89
2022/04/06 12:28:38;;;;;;;;;6.00;2.00;;;;;;;;2;234065150;234065150;-92
2022/04/06 12:37:39;;;;;;;;;3.50;3.50;;;;;;;;2;279075302;279075302;-88
2022/04/06 12:45:55;;;;;;;;;3.50;3.50;;;;;;;;2;234069579;234069579;-87
2022/04/06 12:55:02;;;;;;;;;7.50;7.50;;;;;;;;2;279077989;279077989;-86
2022/04/06 13:03:18;;;;;;;;;3.00;3.00;;;;;;;;2;234068726;234068726;-88
2022/04/06 13:12:20;;;;;;;;;4.50;4.50;;;;;;;;2;279079530;279079530;-91
2022/04/06 13:20:35;;;;;;;;;3.00;3.00;;;;;;;;2;234068937;234068937;-90
2022/04/06 13:29:37;;;;;;;;;5.50;4.00;;;;;;;;2;279075386;279075386;-89
2022/04/06 13:37:52;;;;;;;;;4.50;4.50;;;;;;;;2;234066462;234066462;-91
2022/04/06 13:46:54;;;;;;;;;7.00;7.00;;;;;;;;2;279081382;279081382;-91
2022/04/06 13:55:10;;;;;;;;;3.50;3.50;;;;;;;;2;234067524;234067524;-93
2022/04/06 14:04:11;;;;;;;;;0.50;0.50;;;;;;;;2;279082028;279082028;-91
2022/04/06 14:12:26;;;;;;;;;2.50;2.50;;;;;;;;2;234069167;234069167;-91
2022/04/06 14:21:28;;;;;;;;;0.00;0.00;;;;;;;;2;279072608;279072608;-90
2022/04/06 14:29:44;;;;;;;;;2.50;2.50;;;;;;;;2;234066459;234066459;-93
2022/04/06 14:38:45;;;;;;;;;3.00;3.00;;;;;;;;2;279084043;279084043;-91
2022/04/06 14:47:00;;;;;;;;;4.00;1.00;;;;;;;;2;234068768;234068768;-92
2022/04/06 14:56:01;;;;;;;;;1.50;1.50;;;;;;;;2;279080628;279080628;-91
2022/04/06 15:04:16;;;;;;;;;1.50;1.50;;;;;;;;2;234066523;234066523;-91
2022/04/06 15:13:16;;;;;;;;;2.00;2.00;;;;;;;;2;279080144;279080144;-91
2022/04/06 15:21:32;;;;;;;;;3.00;3.00;;;;;;;;2;234067863;234067863;-89
2022/04/06 15:30:32;;;;;;;;;9.00;3.50;;;;;;;;2;279079637;279079637;-90
2022/04/06 15:38:48;;;;;;;;;10.00;1.00;;;;;;;;2;234068665;234068665;-90
2022/04/06 15:47:48;;;;;;;;;1.50;1.50;;;;;;;;2;279083216;279083216;-86
2022/04/06 15:56:04;;;;;;;;;2.00;2.00;;;;;;;;2;234071251;234071251;-87
2022/04/06 16:05:05;;;;;;;;;3.50;3.50;;;;;;;;2;279081403;279081403;-86
2022/04/06 16:13:22;;;;;;;;;14.00;2.00;;;;;;;;2;234067486;234067486;-87
2022/04/06 16:22:23;;;;;;;;;2.00;2.00;;;;;;;;2;279079121;279079121;-90
2022/04/06 16:30:38;;;;;;;;;1.50;1.50;;;;;;;;2;234069025;234069025;-89
2022/04/06 16:39:38;;;;;;;;;1.00;1.00;;;;;;;;2;279078335;279078335;-87
2022/04/06 16:47:54;;;;;;;;;0.00;0.00;;;;;;;;2;234064381;234064381;-90
2022/04/06 16:56:56;;;;;;;;;2.00;2.00;;;;;;;;2;279077265;279077265;-90
2022/04/06 17:05:12;;;;;;;;;2.00;2.00;;;;;;;;2;234067062;234067062;-89
2022/04/06 17:14:13;;;;;;;;;2.00;2.00;;;;;;;;2;279076216;279076216;-90
2022/04/06 17:22:28;;;;;;;;;2.00;2.00;;;;;;;;2;234067015;234067015;-90
2022/04/06 17:31:29;;;;;;;;;1.00;1.00;;;;;;;;2;279080593;279080593;-91
2022/04/06 17:39:45;;;;;;;;;3.50;3.50;;;;;;;;2;234066795;234066795;-86
2022/04/06 17:48:46;;;;;;;;;1.50;1.50;;;;;;;;2;279081211;279081211;-86
2022/04/06 17:57:04;;;;;;;;;5.00;5.00;;;;;;;;2;234071142;234071142;-87
2022/04/06 18:06:05;;;;;;;;;4.00;4.00;;;;;;;;2;279085971;279085971;-87
2022/04/06 18:14:21;;;;;;;;;2.50;2.50;;;;;;;;2;234072260;234072260;-86
2022/04/06 18:23:21;;;;;;;;;0.00;0.00;;;;;;;;2;279084394;279084394;-85
2022/04/06 18:31:37;;;;;;;;;1.50;1.50;;;;;;;;2;234070878;234070878;-87
2022/04/06 18:40:38;;;;;;;;;2.50;0.50;;;;;;;;2;279080054;279080054;-86
2022/04/06 18:48:54;;;;;;;;;1.50;1.50;;;;;;;;2;234070874;234070874;-87
2022/04/06 18:57:54;;;;;;;;;0.50;0.50;;;;;;;;2;279085057;279085057;-87
2022/04/06 19:06:10;;;;;;;;;3.00;3.00;;;;;;;;2;234072898;234072898;-87
2022/04/06 19:15:11;;;;;;;;;2.00;2.00;;;;;;;;2;279083482;279083482;-87
2022/04/06 19:23:26;;;;;;;;;0.50;0.50;;;;;;;;2;234072108;234072108;-88
2022/04/06 19:32:27;;;;;;;;;1.00;1.00;;;;;;;;2;279095241;279095241;-86
2022/04/06 19:40:42;;;;;;;;;0.50;0.50;;;;;;;;2;234073346;234073346;-89
2022/04/06 19:49:43;;;;;;;;;1.00;1.00;;;;;;;;2;279085163;279085163;-89
2022/04/06 19:57:59;;;;;;;;;0.00;0.00;;;;;;;;2;234067768;234067768;-89
2022/04/06 20:06:59;;;;;;;;;1.00;1.00;;;;;;;;2;279084690;279084690;-88
2022/04/06 20:15:14;;;;;;;;;1.50;1.50;;;;;;;;2;234069203;234069203;-89
2022/04/06 20:24:15;;;;;;;;;0.00;0.00;;;;;;;;2;279084849;279084849;-88
2022/04/06 20:32:30;;;;;;;;;0.50;0.50;;;;;;;;2;234068775;234068775;-86
2022/04/06 20:41:31;;;;;;;;;3.50;0.50;;;;;;;;2;279080683;279080683;-88
2022/04/06 20:49:46;;;;;;;;;12.00;1.00;;;;;;;;2;234070258;234070258;-88
2022/04/06 20:58:47;;;;;;;;;0.00;0.00;;;;;;;;2;279083531;279083531;-86
2022/04/06 21:07:02;;;;;;;;;0.00;0.00;;;;;;;;2;234071979;234071979;-89
2022/04/06 21:16:06;;;;;;;;;0.50;0.50;;;;;;;;2;279087113;279087113;-88
2022/04/06 21:24:21;;;;;;;;;0.50;0.50;;;;;;;;2;234071313;234071313;-89
2022/04/06 21:33:22;;;;;;;;;0.50;0.50;;;;;;;;2;279082897;279082897;-88
2022/04/06 21:41:37;;;;;;;;;0.00;0.00;;;;;;;;2;234068168;234068168;-87
2022/04/06 21:50:37;;;;;;;;;0.50;0.50;;;;;;;;2;279082441;279082441;-88
2022/04/06 21:58:53;;;;;;;;;1.00;1.00;;;;;;;;2;234068553;234068553;-88
2022/04/06 22:07:53;;;;;;;;;1.50;1.50;;;;;;;;2;279081986;279081986;-89
2022/04/06 22:16:09;;;;;;;;;1.00;1.00;;;;;;;;2;234069958;234069958;-88
2022/04/06 22:25:09;;;;;;;;;0.00;0.00;;;;;;;;2;279081490;279081490;-90
2022/04/06 22:33:25;;;;;;;;;1.00;1.00;;;;;;;;2;234069135;234069135;-88
2022/04/06 22:42:25;;;;;;;;;1.00;1.00;;;;;;;;2;279080615;279080615;-89
2022/04/06 22:50:41;;;;;;;;;0.00;0.00;;;;;;;;2;234068380;234068380;-88
2022/04/06 22:59:41;;;;;;;;;2.00;2.00;;;;;;;;2;279082442;279082442;-89
2022/04/06 23:07:57;;;;;;;;;0.00;0.00;;;;;;;;2;234068300;234068300;-89
2022/04/06 23:16:57;;;;;;;;;0.50;0.50;;;;;;;;2;279080862;279080862;-88
2022/04/06 23:25:12;;;;;;;;;0.00;0.00;;;;;;;;2;234071608;234071608;-89
2022/04/06 23:34:13;;;;;;;;;0.00;0.00;;;;;;;;2;279079414;279079414;-88
2022/04/06 23:42:28;;;;;;;;;1.50;1.50;;;;;;;;2;234069844;234069844;-89
2022/04/06 23:51:31;;;;;;;;;0.50;0.50;;;;;;;;2;279083956;279083956;-89
2022/04/06 23:59:46;;;;;;;;;0.00;0.00;;;;;;;;2;234071692;234071692;-88
